createdAt,value
2018-08-23T00:00:43.996Z,24.06
2018-08-23T00:02:36.925Z,24.08
2018-08-23T00:03:36.982Z,23.98
2018-08-23T00:05:29.855Z,24.02
2018-08-23T00:06:29.881Z,23.97
2018-08-23T00:08:22.846Z,23.88
2018-08-23T00:09:22.840Z,23.88
2018-08-23T00:11:15.753Z,23.94
2018-08-23T00:12:15.777Z,23.90
2018-08-23T00:14:08.716Z,24.02
2018-08-23T00:15:08.730Z,23.84
2018-08-23T00:17:01.643Z,23.90
2018-08-23T00:18:01.669Z,23.83
2018-08-23T00:19:54.604Z,23.84
2018-08-23T00:20:54.620Z,23.87
2018-08-23T00:22:47.569Z,23.63
2018-08-23T00:23:47.573Z,23.70
2018-08-23T00:25:40.498Z,23.72
2018-08-23T00:26:40.523Z,23.69
2018-08-23T00:28:33.446Z,23.60
2018-08-23T00:29:33.467Z,23.51
2018-08-23T00:31:26.384Z,23.43
2018-08-23T00:32:26.414Z,23.40
2018-08-23T00:34:19.335Z,23.51
2018-08-23T00:35:19.349Z,23.54
2018-08-23T00:37:12.269Z,23.58
2018-08-23T00:38:12.293Z,23.53
2018-08-23T00:40:05.218Z,23.55
2018-08-23T00:41:05.236Z,23.58
2018-08-23T00:42:58.156Z,23.48
2018-08-23T00:43:58.178Z,23.46
2018-08-23T00:45:51.106Z,23.48
2018-08-23T00:46:51.120Z,23.47
2018-08-23T00:48:44.047Z,23.47
2018-08-23T00:49:44.063Z,23.33
2018-08-23T00:51:36.982Z,23.23
2018-08-23T00:52:37.013Z,23.35
2018-08-23T00:54:29.938Z,23.27
2018-08-23T00:55:29.953Z,23.25
2018-08-23T00:57:22.872Z,23.23
2018-08-23T00:58:22.894Z,23.19
2018-08-23T01:00:15.818Z,23.27
2018-08-23T01:01:15.833Z,23.19
2018-08-23T01:03:08.748Z,23.17
2018-08-23T01:04:08.777Z,23.16
2018-08-23T01:06:01.699Z,23.17
2018-08-23T01:07:01.716Z,23.16
2018-08-23T01:08:54.640Z,23.16
2018-08-23T01:09:54.658Z,23.05
2018-08-23T01:11:47.577Z,23.10
2018-08-23T01:12:47.602Z,23.07
2018-08-23T01:14:40.524Z,22.92
2018-08-23T01:15:40.541Z,22.94
2018-08-23T01:17:33.463Z,22.95
2018-08-23T01:18:33.491Z,22.88
2018-08-23T01:20:26.415Z,22.83
2018-08-23T01:21:26.431Z,22.85
2018-08-23T01:23:19.349Z,22.90
2018-08-23T01:24:19.372Z,22.80
2018-08-23T01:26:12.293Z,22.79
2018-08-23T01:27:12.312Z,22.62
2018-08-23T01:29:05.235Z,22.51
2018-08-23T01:30:05.254Z,22.61
2018-08-23T01:31:58.169Z,22.49
2018-08-23T01:32:58.195Z,22.51
2018-08-23T01:34:51.116Z,22.47
2018-08-23T01:35:51.132Z,22.43
2018-08-23T01:37:44.047Z,22.33
2018-08-23T01:38:44.073Z,22.28
2018-08-23T01:40:37.004Z,22.31
2018-08-23T01:41:37.023Z,22.27
2018-08-23T01:43:29.941Z,22.28
2018-08-23T01:44:29.963Z,22.31
2018-08-23T01:46:22.894Z,22.27
2018-08-23T01:47:22.912Z,22.21
2018-08-23T01:49:15.832Z,22.35
2018-08-23T01:50:15.853Z,22.27
2018-08-23T01:52:08.766Z,22.20
2018-08-23T01:53:08.791Z,22.27
2018-08-23T01:55:01.717Z,22.24
2018-08-23T01:56:01.732Z,22.25
2018-08-23T01:57:54.647Z,22.22
2018-08-23T01:58:54.672Z,22.20
2018-08-23T02:00:47.600Z,22.12
2018-08-23T02:01:47.613Z,22.10
2018-08-23T02:03:40.526Z,22.12
2018-08-23T02:04:40.550Z,22.03
2018-08-23T02:06:33.479Z,21.98
2018-08-23T02:07:33.489Z,21.88
2018-08-23T02:09:26.420Z,21.90
2018-08-23T02:10:26.432Z,21.84
2018-08-23T02:12:19.347Z,21.90
2018-08-23T02:13:19.377Z,21.88
2018-08-23T02:15:12.298Z,21.86
2018-08-23T02:16:12.309Z,21.90
2018-08-23T02:18:05.231Z,21.84
2018-08-23T02:19:05.256Z,21.82
2018-08-23T02:20:58.176Z,21.77
2018-08-23T02:21:58.193Z,21.71
2018-08-23T02:23:51.109Z,21.74
2018-08-23T02:24:51.131Z,21.74
2018-08-23T02:26:44.053Z,21.67
2018-08-23T02:27:44.069Z,21.67
2018-08-23T02:29:36.992Z,21.67
2018-08-23T02:30:37.009Z,21.71
2018-08-23T02:32:29.924Z,21.65
2018-08-23T02:33:29.946Z,21.65
2018-08-23T02:35:22.869Z,21.67
2018-08-23T02:36:22.888Z,21.61
2018-08-23T02:38:15.833Z,21.54
2018-08-23T02:39:15.822Z,21.62
2018-08-23T02:41:08.749Z,21.54
2018-08-23T02:42:08.763Z,21.59
2018-08-23T02:44:01.677Z,21.43
2018-08-23T02:45:01.721Z,21.54
2018-08-23T02:46:54.624Z,21.50
2018-08-23T02:47:54.642Z,21.46
2018-08-23T02:49:47.560Z,21.42
2018-08-23T02:50:47.584Z,21.46
2018-08-23T02:52:40.506Z,21.44
2018-08-23T02:53:40.525Z,21.31
2018-08-23T02:55:33.444Z,21.31
2018-08-23T02:56:33.457Z,21.37
2018-08-23T02:58:26.372Z,21.27
2018-08-23T02:59:26.398Z,21.29
2018-08-23T03:01:19.325Z,21.32
2018-08-23T03:02:19.339Z,21.24
2018-08-23T03:04:12.256Z,21.24
2018-08-23T03:05:12.277Z,21.19
2018-08-23T03:07:05.202Z,21.22
2018-08-23T03:08:05.215Z,21.16
2018-08-23T03:09:58.132Z,21.25
2018-08-23T03:10:58.154Z,21.22
2018-08-23T03:12:51.076Z,21.17
2018-08-23T03:13:51.093Z,21.17
2018-08-23T03:16:44.173Z,21.16
2018-08-23T03:18:37.013Z,21.14
2018-08-23T03:19:37.038Z,21.24
2018-08-23T03:21:29.988Z,21.13
2018-08-23T03:22:30.067Z,21.12
2018-08-23T03:24:23.416Z,21.21
2018-08-23T03:25:23.480Z,21.17
2018-08-23T03:27:16.401Z,21.12
2018-08-23T03:28:16.400Z,21.07
2018-08-23T03:30:09.346Z,21.13
2018-08-23T03:31:09.368Z,21.12
2018-08-23T03:33:02.299Z,21.07
2018-08-23T03:34:02.407Z,21.01
2018-08-23T03:35:55.285Z,21.01
2018-08-23T03:36:55.340Z,21.03
2018-08-23T03:38:49.316Z,21.06
2018-08-23T03:39:49.309Z,20.95
2018-08-23T03:41:42.273Z,20.99
2018-08-23T03:42:42.246Z,20.91
2018-08-23T03:44:35.185Z,20.94
2018-08-23T03:45:35.255Z,20.91
2018-08-23T03:47:28.181Z,20.92
2018-08-23T03:48:28.196Z,20.88
2018-08-23T03:50:21.110Z,20.88
2018-08-23T03:51:21.115Z,20.79
2018-08-23T03:53:14.126Z,20.91
2018-08-23T03:54:14.135Z,20.88
2018-08-23T03:56:07.060Z,20.76
2018-08-23T03:57:07.096Z,20.70
2018-08-23T03:59:00.051Z,20.80
2018-08-23T04:00:00.078Z,20.77
2018-08-23T04:01:52.995Z,20.85
2018-08-23T04:02:53.010Z,20.72
2018-08-23T04:04:45.928Z,20.73
2018-08-23T04:05:45.948Z,20.70
2018-08-23T04:07:38.869Z,20.77
2018-08-23T04:08:38.885Z,20.74
2018-08-23T04:10:31.801Z,20.76
2018-08-23T04:11:31.822Z,20.72
2018-08-23T04:13:24.746Z,20.73
2018-08-23T04:14:24.759Z,20.57
2018-08-23T04:16:17.695Z,20.55
2018-08-23T04:17:17.696Z,20.55
2018-08-23T04:19:10.801Z,20.57
2018-08-23T04:20:10.864Z,20.62
2018-08-23T04:22:03.751Z,20.59
2018-08-23T04:23:03.761Z,20.58
2018-08-23T04:24:56.679Z,20.62
2018-08-23T04:25:56.704Z,20.59
2018-08-23T04:27:49.625Z,20.51
2018-08-23T04:28:49.646Z,20.57
2018-08-23T04:30:42.555Z,20.51
2018-08-23T04:31:42.578Z,20.55
2018-08-23T04:33:35.502Z,20.55
2018-08-23T04:34:35.514Z,20.50
2018-08-23T04:36:28.427Z,20.43
2018-08-23T04:37:28.449Z,20.47
2018-08-23T04:39:21.373Z,20.32
2018-08-23T04:40:21.393Z,20.39
2018-08-23T04:42:14.308Z,20.38
2018-08-23T04:43:14.481Z,20.38
2018-08-23T04:45:07.259Z,20.36
2018-08-23T04:46:07.279Z,20.35
2018-08-23T04:48:00.196Z,20.36
2018-08-23T04:49:00.213Z,20.43
2018-08-23T04:50:53.125Z,20.35
2018-08-23T04:51:53.147Z,20.35
2018-08-23T04:53:46.071Z,20.42
2018-08-23T04:54:46.083Z,20.36
2018-08-23T04:56:38.997Z,20.39
2018-08-23T04:57:39.020Z,20.39
2018-08-23T04:59:31.941Z,20.38
2018-08-23T05:00:31.957Z,20.36
2018-08-23T05:02:24.871Z,20.41
2018-08-23T05:03:24.896Z,20.51
2018-08-23T05:05:17.818Z,20.42
2018-08-23T05:06:17.847Z,20.51
2018-08-23T05:08:10.759Z,20.42
2018-08-23T05:09:10.780Z,20.43
2018-08-23T05:11:03.687Z,20.42
2018-08-23T05:12:03.715Z,20.50
2018-08-23T05:13:56.676Z,20.57
2018-08-23T05:14:56.647Z,20.58
2018-08-23T05:16:49.558Z,20.66
2018-08-23T05:17:49.581Z,20.54
2018-08-23T05:19:42.514Z,20.72
2018-08-23T05:20:42.537Z,20.73
2018-08-23T05:22:35.451Z,20.73
2018-08-23T05:23:35.478Z,20.82
2018-08-23T05:25:28.393Z,20.95
2018-08-23T05:26:28.407Z,20.95
2018-08-23T05:28:21.344Z,21.09
2018-08-23T05:29:21.352Z,21.12
2018-08-23T05:31:14.262Z,21.09
2018-08-23T05:32:14.284Z,21.14
2018-08-23T05:34:07.204Z,21.21
2018-08-23T05:35:07.221Z,21.14
2018-08-23T05:37:00.130Z,21.27
2018-08-23T05:38:00.176Z,21.32
2018-08-23T05:39:53.089Z,21.31
2018-08-23T05:40:53.108Z,21.40
2018-08-23T05:42:46.040Z,21.53
2018-08-23T05:43:46.047Z,21.44
2018-08-23T05:45:38.971Z,21.49
2018-08-23T05:46:38.985Z,21.50
2018-08-23T05:48:31.920Z,21.58
2018-08-23T05:49:31.926Z,21.54
2018-08-23T05:51:24.848Z,21.59
2018-08-23T05:52:24.868Z,21.67
2018-08-23T05:54:17.790Z,21.75
2018-08-23T05:55:17.807Z,21.79
2018-08-23T05:57:10.724Z,21.80
2018-08-23T05:58:10.743Z,21.80
2018-08-23T06:00:03.670Z,21.84
2018-08-23T06:01:03.687Z,21.99
2018-08-23T06:02:56.603Z,22.09
2018-08-23T06:03:56.629Z,22.02
2018-08-23T06:05:50.546Z,22.05
2018-08-23T06:06:50.564Z,22.07
2018-08-23T06:08:43.478Z,22.07
2018-08-23T06:09:43.500Z,22.12
2018-08-23T06:11:36.424Z,22.09
2018-08-23T06:12:36.441Z,22.05
2018-08-23T06:14:29.383Z,22.10
2018-08-23T06:15:29.401Z,22.20
2018-08-23T06:17:22.319Z,22.24
2018-08-23T06:18:22.343Z,22.30
2018-08-23T06:20:15.272Z,22.24
2018-08-23T06:21:15.284Z,22.21
2018-08-23T06:23:08.203Z,22.28
2018-08-23T06:24:08.228Z,22.35
2018-08-23T06:26:01.171Z,22.45
2018-08-23T06:27:01.179Z,22.39
2018-08-23T06:28:54.092Z,22.52
2018-08-23T06:29:54.118Z,22.46
2018-08-23T06:31:47.038Z,22.65
2018-08-23T06:32:47.111Z,22.67
2018-08-23T06:34:39.981Z,22.77
2018-08-23T06:35:40.027Z,22.77
2018-08-23T06:37:32.949Z,22.82
2018-08-23T06:38:32.987Z,22.79
2018-08-23T06:40:25.867Z,22.88
2018-08-23T06:41:25.889Z,22.94
2018-08-23T06:43:18.804Z,22.92
2018-08-23T06:44:18.845Z,22.92
2018-08-23T06:46:11.766Z,22.95
2018-08-23T06:47:11.774Z,22.98
2018-08-23T06:49:04.698Z,23.07
2018-08-23T06:50:04.717Z,23.02
2018-08-23T06:51:57.647Z,23.17
2018-08-23T06:52:57.663Z,23.20
2018-08-23T06:54:50.599Z,23.25
2018-08-23T06:55:50.614Z,23.35
2018-08-23T06:57:43.533Z,23.47
2018-08-23T06:58:43.616Z,23.48
2018-08-23T07:00:36.484Z,23.50
2018-08-23T07:01:36.504Z,23.54
2018-08-23T07:03:29.417Z,23.65
2018-08-23T07:04:29.448Z,23.78
2018-08-23T07:06:22.369Z,23.79
2018-08-23T07:07:22.390Z,23.95
2018-08-23T07:09:15.308Z,23.95
2018-08-23T07:10:15.334Z,24.12
2018-08-23T07:12:08.261Z,24.06
2018-08-23T07:13:08.277Z,24.02
2018-08-23T07:15:01.211Z,24.15
2018-08-23T07:16:01.224Z,24.22
2018-08-23T07:17:54.144Z,24.20
2018-08-23T07:18:54.170Z,24.24
2018-08-23T07:20:47.107Z,24.39
2018-08-23T07:21:47.124Z,24.42
2018-08-23T07:23:40.052Z,24.27
2018-08-23T07:24:40.072Z,24.25
2018-08-23T07:26:33.002Z,24.13
2018-08-23T07:27:33.024Z,24.21
2018-08-23T07:29:25.957Z,24.32
2018-08-23T07:30:25.971Z,24.40
2018-08-23T07:32:18.899Z,24.50
2018-08-23T07:33:18.920Z,24.58
2018-08-23T07:35:11.842Z,24.73
2018-08-23T07:36:11.862Z,24.76
2018-08-23T07:38:04.779Z,24.84
2018-08-23T07:39:04.830Z,24.68
2018-08-23T07:40:57.734Z,24.71
2018-08-23T07:41:57.811Z,24.88
2018-08-23T07:43:50.673Z,24.91
2018-08-23T07:44:50.700Z,24.99
2018-08-23T07:46:43.627Z,25.10
2018-08-23T07:47:43.647Z,25.14
2018-08-23T07:49:36.568Z,25.23
2018-08-23T07:50:36.597Z,25.38
2018-08-23T07:52:29.540Z,25.52
2018-08-23T07:53:29.722Z,25.54
2018-08-23T07:55:22.488Z,25.72
2018-08-23T07:56:22.501Z,25.73
2018-08-23T07:58:15.423Z,25.62
2018-08-23T07:59:15.447Z,25.64
2018-08-23T08:01:08.402Z,25.65
2018-08-23T08:02:08.424Z,25.62
2018-08-23T08:04:01.346Z,25.70
2018-08-23T08:05:01.370Z,25.70
2018-08-23T08:06:54.302Z,25.80
2018-08-23T08:07:54.326Z,25.79
2018-08-23T08:09:47.245Z,25.88
2018-08-23T08:10:47.274Z,25.87
2018-08-23T08:12:40.204Z,25.94
2018-08-23T08:13:40.222Z,26.05
2018-08-23T08:15:33.338Z,26.02
2018-08-23T08:16:33.365Z,26.07
2018-08-23T08:18:26.294Z,26.32
2018-08-23T08:19:26.319Z,26.40
2018-08-23T08:21:19.244Z,26.66
2018-08-23T08:22:19.262Z,26.67
2018-08-23T08:24:12.184Z,26.80
2018-08-23T08:25:12.217Z,26.88
2018-08-23T08:27:05.186Z,26.99
2018-08-23T08:28:05.168Z,27.21
2018-08-23T08:29:58.094Z,27.28
2018-08-23T08:30:58.119Z,27.50
2018-08-23T08:32:51.050Z,27.67
2018-08-23T08:33:51.067Z,27.79
2018-08-23T08:35:43.993Z,27.96
2018-08-23T08:36:44.023Z,28.03
2018-08-23T08:38:36.974Z,27.99
2018-08-23T08:39:36.977Z,27.84
2018-08-23T08:41:29.906Z,27.93
2018-08-23T08:42:29.929Z,27.93
2018-08-23T08:44:22.850Z,27.92
2018-08-23T08:45:22.932Z,27.84
2018-08-23T08:47:15.816Z,27.84
2018-08-23T08:48:15.835Z,27.94
2018-08-23T08:50:08.780Z,27.94
2018-08-23T08:51:08.783Z,28.00
2018-08-23T08:53:01.747Z,27.99
2018-08-23T08:54:01.770Z,27.84
2018-08-23T08:55:54.693Z,27.79
2018-08-23T08:56:54.814Z,27.67
2018-08-23T08:58:47.751Z,27.65
2018-08-23T08:59:47.793Z,27.66
2018-08-23T09:01:40.654Z,27.51
2018-08-23T09:02:40.693Z,27.28
2018-08-23T09:04:33.646Z,27.28
2018-08-23T09:05:33.660Z,27.28
2018-08-23T09:07:26.607Z,27.34
2018-08-23T09:08:26.615Z,27.40
2018-08-23T09:10:19.553Z,27.31
2018-08-23T09:11:19.571Z,27.55
2018-08-23T09:13:12.507Z,27.66
2018-08-23T09:14:12.528Z,27.81
2018-08-23T09:16:06.801Z,27.44
2018-08-23T09:17:06.549Z,27.51
2018-08-23T09:18:58.434Z,27.34
2018-08-23T09:19:58.511Z,27.29
2018-08-23T09:21:51.427Z,27.31
2018-08-23T09:22:51.404Z,27.29
2018-08-23T09:24:44.329Z,27.49
2018-08-23T09:25:44.373Z,27.57
2018-08-23T09:27:38.020Z,27.77
2018-08-23T09:28:38.039Z,27.72
2018-08-23T09:30:31.049Z,27.90
2018-08-23T09:31:31.071Z,28.03
2018-08-23T09:33:24.104Z,28.17
2018-08-23T09:34:24.127Z,28.18
2018-08-23T09:36:17.209Z,28.15
2018-08-23T09:37:17.192Z,28.11
2018-08-23T09:39:10.215Z,28.12
2018-08-23T09:40:10.244Z,28.18
2018-08-23T09:42:03.268Z,28.36
2018-08-23T09:43:03.342Z,28.31
2018-08-23T09:44:56.326Z,28.46
2018-08-23T09:45:56.355Z,28.49
2018-08-23T09:47:49.387Z,28.68
2018-08-23T09:48:49.409Z,28.73
2018-08-23T09:52:14.830Z,29.04
2018-08-23T09:53:14.829Z,29.08
2018-08-23T09:55:07.861Z,29.34
2018-08-23T09:56:07.884Z,29.48
2018-08-23T09:58:00.919Z,29.31
2018-08-23T09:59:00.944Z,29.18
2018-08-23T10:00:53.970Z,28.90
2018-08-23T10:01:54.003Z,28.76
2018-08-23T10:03:47.032Z,28.76
2018-08-23T10:04:47.095Z,28.78
2018-08-23T10:06:40.086Z,28.70
2018-08-23T10:07:40.113Z,28.62
2018-08-23T10:09:34.067Z,28.66
2018-08-23T10:10:34.098Z,28.67
2018-08-23T10:12:27.119Z,28.66
2018-08-23T10:13:27.147Z,28.66
2018-08-23T10:15:20.588Z,28.66
2018-08-23T10:16:20.612Z,28.67
2018-08-23T10:18:13.639Z,28.74
2018-08-23T10:19:13.676Z,28.76
2018-08-23T10:21:06.704Z,28.78
2018-08-23T10:22:06.730Z,28.73
2018-08-23T10:23:59.761Z,28.81
2018-08-23T10:24:59.786Z,28.95
2018-08-23T10:26:52.806Z,29.06
2018-08-23T10:27:52.839Z,29.11
2018-08-23T10:29:45.875Z,29.15
2018-08-23T10:30:45.892Z,29.15
2018-08-23T10:32:38.929Z,29.30
2018-08-23T10:33:38.959Z,29.33
2018-08-23T10:35:31.980Z,29.48
2018-08-23T10:36:32.005Z,29.53
2018-08-23T10:38:25.035Z,29.49
2018-08-23T10:39:25.062Z,29.41
2018-08-23T10:41:18.103Z,29.24
2018-08-23T10:42:18.118Z,29.26
2018-08-23T10:44:11.155Z,29.14
2018-08-23T10:45:11.176Z,29.06
2018-08-23T10:47:04.198Z,28.80
2018-08-23T10:48:04.235Z,28.78
2018-08-23T10:49:57.267Z,28.80
2018-08-23T10:50:57.357Z,28.80
2018-08-23T10:52:50.729Z,28.62
2018-08-23T10:53:50.765Z,28.67
2018-08-23T10:55:44.448Z,28.81
2018-08-23T10:56:43.808Z,28.90
2018-08-23T10:58:36.837Z,28.96
2018-08-23T10:59:36.869Z,29.06
2018-08-23T11:01:39.848Z,29.24
2018-08-23T11:02:39.849Z,29.30
2018-08-23T11:04:33.005Z,29.26
2018-08-23T11:05:33.029Z,29.18
2018-08-23T11:07:25.970Z,29.08
2018-08-23T11:08:25.996Z,28.78
2018-08-23T11:10:18.933Z,28.76
2018-08-23T11:11:18.950Z,28.89
2018-08-23T11:13:11.876Z,28.89
2018-08-23T11:14:11.905Z,29.11
2018-08-23T11:16:04.839Z,29.24
2018-08-23T11:17:04.995Z,29.27
2018-08-23T11:18:57.788Z,29.58
2018-08-23T11:19:57.817Z,29.68
2018-08-23T11:21:50.748Z,30.01
2018-08-23T11:22:50.770Z,30.05
2018-08-23T11:24:43.704Z,30.13
2018-08-23T11:25:43.729Z,30.23
2018-08-23T11:27:36.654Z,30.32
2018-08-23T11:28:36.685Z,30.39
2018-08-23T11:30:29.618Z,30.53
2018-08-23T11:31:29.640Z,30.64
2018-08-23T11:33:22.572Z,30.89
2018-08-23T11:34:22.603Z,30.95
2018-08-23T11:36:15.539Z,31.09
2018-08-23T11:37:15.561Z,31.17
2018-08-23T11:39:08.484Z,31.20
2018-08-23T11:40:08.516Z,31.25
2018-08-23T11:42:01.454Z,31.21
2018-08-23T11:43:01.472Z,31.34
2018-08-23T11:44:54.411Z,31.20
2018-08-23T11:45:54.429Z,30.99
2018-08-23T11:47:47.516Z,30.51
2018-08-23T11:48:47.573Z,29.97
2018-08-23T11:50:40.485Z,29.80
2018-08-23T11:51:40.507Z,29.52
2018-08-23T11:53:33.633Z,29.12
2018-08-23T11:54:33.981Z,29.04
2018-08-23T11:56:26.391Z,28.90
2018-08-23T11:57:26.417Z,29.04
2018-08-23T11:59:19.340Z,29.15
2018-08-23T12:00:19.376Z,29.23
2018-08-23T12:02:12.301Z,29.58
2018-08-23T12:03:12.345Z,29.63
2018-08-23T12:05:05.448Z,29.71
2018-08-23T12:06:05.472Z,29.80
2018-08-23T12:07:58.394Z,29.95
2018-08-23T12:08:58.426Z,29.97
2018-08-23T12:10:51.357Z,29.94
2018-08-23T12:11:51.380Z,29.98
2018-08-23T12:13:44.304Z,29.95
2018-08-23T12:14:44.336Z,29.87
2018-08-23T12:16:37.479Z,29.71
2018-08-23T12:17:37.312Z,29.87
2018-08-23T12:19:30.234Z,29.92
2018-08-23T12:20:30.473Z,29.98
2018-08-23T12:22:24.190Z,30.01
2018-08-23T12:23:23.221Z,29.92
2018-08-23T12:25:16.528Z,29.83
2018-08-23T12:26:16.738Z,29.98
2018-08-23T12:28:09.473Z,30.05
2018-08-23T12:29:09.503Z,30.10
2018-08-23T12:31:02.446Z,30.11
2018-08-23T12:32:02.486Z,30.26
2018-08-23T12:33:55.384Z,30.31
2018-08-23T12:34:55.509Z,30.43
2018-08-23T12:36:48.379Z,30.49
2018-08-23T12:37:48.371Z,30.57
2018-08-23T12:39:41.296Z,30.86
2018-08-23T12:40:41.331Z,30.91
2018-08-23T12:42:34.265Z,31.06
2018-08-23T12:43:34.324Z,31.04
2018-08-23T12:45:27.223Z,31.09
2018-08-23T12:46:27.314Z,30.95
2018-08-23T12:48:20.168Z,30.72
2018-08-23T12:49:20.253Z,30.73
2018-08-23T12:51:13.131Z,30.69
2018-08-23T12:52:13.155Z,30.69
2018-08-23T12:54:06.087Z,30.67
2018-08-23T12:55:06.126Z,30.65
2018-08-23T12:56:59.051Z,30.73
2018-08-23T12:57:59.074Z,30.70
2018-08-23T12:59:52.000Z,30.73
2018-08-23T13:00:52.032Z,30.69
2018-08-23T13:02:45.185Z,30.45
2018-08-23T13:03:45.015Z,30.39
2018-08-23T13:05:37.921Z,30.39
2018-08-23T13:06:37.944Z,30.31
2018-08-23T13:08:30.914Z,30.35
2018-08-23T13:09:30.898Z,30.49
2018-08-23T13:11:23.830Z,30.34
2018-08-23T13:12:23.852Z,30.37
2018-08-23T13:14:16.782Z,30.45
2018-08-23T13:15:16.812Z,30.47
2018-08-23T13:17:09.932Z,30.69
2018-08-23T13:18:09.931Z,30.88
2018-08-23T13:20:02.861Z,30.95
2018-08-23T13:21:02.888Z,30.97
2018-08-23T13:22:55.829Z,30.94
2018-08-23T13:23:55.849Z,30.79
2018-08-23T13:25:48.782Z,30.69
2018-08-23T13:26:48.806Z,30.57
2018-08-23T13:28:41.746Z,30.31
2018-08-23T13:29:41.771Z,30.34
2018-08-23T13:31:34.750Z,30.10
2018-08-23T13:32:34.725Z,30.10
2018-08-23T13:34:27.649Z,30.24
2018-08-23T13:35:27.686Z,30.37
2018-08-23T13:37:20.615Z,30.57
2018-08-23T13:38:20.637Z,30.69
2018-08-23T13:40:13.559Z,30.99
2018-08-23T13:41:13.593Z,30.86
2018-08-23T13:43:06.530Z,30.53
2018-08-23T13:44:06.551Z,30.27
2018-08-23T13:45:59.469Z,30.26
2018-08-23T13:46:59.507Z,30.27
2018-08-23T13:48:52.440Z,30.46
2018-08-23T13:49:52.466Z,30.45
2018-08-23T13:51:45.409Z,30.64
2018-08-23T13:52:45.475Z,30.46
2018-08-23T13:54:38.393Z,30.47
2018-08-23T13:55:38.383Z,30.42
2018-08-23T13:57:31.326Z,30.51
2018-08-23T13:58:31.340Z,30.49
2018-08-23T14:00:26.037Z,30.58
2018-08-23T14:01:25.082Z,30.60
2018-08-23T14:03:18.032Z,30.69
2018-08-23T14:04:18.057Z,30.64
2018-08-23T14:06:11.052Z,30.62
2018-08-23T14:07:11.073Z,30.61
2018-08-23T14:09:03.948Z,30.64
2018-08-23T14:10:03.971Z,30.69
2018-08-23T14:11:57.026Z,30.73
2018-08-23T14:12:57.128Z,30.64
2018-08-23T14:14:50.062Z,30.76
2018-08-23T14:15:50.073Z,30.84
2018-08-23T14:17:43.010Z,30.86
2018-08-23T14:18:43.035Z,30.97
2018-08-23T14:20:35.963Z,31.01
2018-08-23T14:21:35.989Z,31.07
2018-08-23T14:23:28.926Z,31.25
2018-08-23T14:24:28.944Z,31.21
2018-08-23T14:26:21.873Z,31.34
2018-08-23T14:27:21.908Z,31.25
2018-08-23T14:29:14.873Z,31.31
2018-08-23T14:30:14.862Z,31.32
2018-08-23T14:32:07.792Z,31.23
2018-08-23T14:33:07.873Z,31.21
2018-08-23T14:35:00.746Z,31.23
2018-08-23T14:36:00.774Z,31.12
2018-08-23T14:37:53.708Z,31.10
2018-08-23T14:38:53.796Z,31.14
2018-08-23T14:40:47.003Z,31.17
2018-08-23T14:41:46.712Z,31.25
2018-08-23T14:43:39.778Z,31.10
2018-08-23T14:44:39.804Z,30.99
2018-08-23T14:46:32.738Z,30.72
2018-08-23T14:47:32.758Z,30.94
2018-08-23T14:49:25.698Z,30.88
2018-08-23T14:50:25.721Z,30.80
2018-08-23T14:52:18.656Z,30.86
2018-08-23T14:53:18.746Z,30.86
2018-08-23T14:55:11.677Z,30.86
2018-08-23T14:56:11.648Z,30.98
2018-08-23T14:58:04.578Z,31.12
2018-08-23T14:59:04.713Z,31.23
2018-08-23T15:00:58.578Z,31.44
2018-08-23T15:01:58.557Z,31.44
2018-08-23T15:03:51.499Z,31.46
2018-08-23T15:04:51.506Z,31.47
2018-08-23T15:06:44.557Z,31.63
2018-08-23T15:07:44.632Z,31.78
2018-08-23T15:09:37.449Z,31.48
2018-08-23T15:10:37.461Z,31.48
2018-08-23T15:12:30.394Z,31.39
2018-08-23T15:13:30.413Z,31.38
2018-08-23T15:15:23.351Z,31.48
2018-08-23T15:16:23.382Z,31.46
2018-08-23T15:18:16.317Z,31.51
2018-08-23T15:19:16.340Z,31.56
2018-08-23T15:21:09.269Z,31.51
2018-08-23T15:22:09.331Z,31.46
2018-08-23T15:24:02.233Z,31.36
2018-08-23T15:25:02.258Z,31.44
2018-08-23T15:26:55.250Z,31.34
2018-08-23T15:27:55.213Z,31.29
2018-08-23T15:29:48.300Z,31.41
2018-08-23T15:30:48.167Z,31.31
2018-08-23T15:32:41.093Z,31.35
2018-08-23T15:33:41.126Z,31.23
2018-08-23T15:35:34.296Z,31.13
2018-08-23T15:36:34.320Z,31.16
2018-08-23T15:38:27.273Z,31.16
2018-08-23T15:39:27.309Z,31.21
2018-08-23T15:41:20.205Z,31.21
2018-08-23T15:42:20.234Z,30.95
2018-08-23T15:44:13.170Z,30.77
2018-08-23T15:45:13.193Z,30.46
2018-08-23T15:47:06.125Z,30.55
2018-08-23T15:48:06.311Z,30.47
2018-08-23T15:49:59.109Z,30.46
2018-08-23T15:50:59.107Z,30.55
2018-08-23T15:52:52.035Z,30.38
2018-08-23T15:53:52.065Z,30.43
2018-08-23T15:55:45.046Z,30.37
2018-08-23T15:56:45.023Z,30.38
2018-08-23T15:58:37.953Z,30.45
2018-08-23T15:59:37.983Z,30.46
2018-08-23T16:01:30.921Z,30.39
2018-08-23T16:02:30.940Z,30.46
2018-08-23T16:04:23.892Z,30.42
2018-08-23T16:05:23.898Z,30.60
2018-08-23T16:07:17.083Z,30.60
2018-08-23T16:08:16.998Z,30.57
2018-08-23T16:10:09.953Z,30.43
2018-08-23T16:11:09.956Z,30.43
2018-08-23T16:13:02.884Z,30.23
2018-08-23T16:14:02.916Z,30.08
2018-08-23T16:15:55.869Z,29.97
2018-08-23T16:16:55.888Z,29.92
2018-08-23T16:18:49.583Z,29.90
2018-08-23T16:19:49.614Z,29.89
2018-08-23T16:21:42.558Z,29.94
2018-08-23T16:22:42.572Z,30.17
2018-08-23T16:24:35.521Z,30.20
2018-08-23T16:25:35.533Z,30.17
2018-08-23T16:27:28.454Z,30.22
2018-08-23T16:28:28.484Z,30.17
2018-08-23T16:30:21.417Z,29.98
2018-08-23T16:31:21.437Z,29.98
2018-08-23T16:33:14.364Z,29.87
2018-08-23T16:34:14.394Z,29.80
2018-08-23T16:36:07.323Z,29.70
2018-08-23T16:37:07.348Z,29.68
2018-08-23T16:39:00.273Z,29.53
2018-08-23T16:40:00.373Z,29.34
2018-08-23T16:41:53.241Z,29.23
2018-08-23T16:42:53.265Z,29.21
2018-08-23T16:44:46.208Z,29.15
2018-08-23T16:45:46.253Z,29.18
2018-08-23T16:47:39.169Z,29.09
2018-08-23T16:48:39.194Z,29.08
2018-08-23T16:50:32.122Z,28.96
2018-08-23T16:51:32.144Z,28.86
2018-08-23T16:53:25.066Z,28.62
2018-08-23T16:54:25.123Z,28.43
2018-08-23T16:56:18.027Z,28.33
2018-08-23T16:57:18.051Z,28.39
2018-08-23T16:59:10.979Z,28.24
2018-08-23T17:00:11.005Z,28.06
2018-08-23T17:02:03.939Z,28.00
2018-08-23T17:03:03.957Z,27.99
2018-08-23T17:04:56.880Z,27.85
2018-08-23T17:05:56.909Z,27.85
2018-08-23T17:07:49.854Z,27.72
2018-08-23T17:08:49.864Z,27.62
2018-08-23T17:10:42.794Z,27.75
2018-08-23T17:11:42.818Z,27.70
2018-08-23T17:13:35.753Z,27.79
2018-08-23T17:14:35.775Z,27.69
2018-08-23T17:16:28.875Z,27.81
2018-08-23T17:17:28.895Z,27.87
2018-08-23T17:19:21.819Z,27.88
2018-08-23T17:20:21.849Z,27.96
2018-08-23T17:22:14.780Z,27.85
2018-08-23T17:23:14.858Z,27.87
2018-08-23T17:25:07.791Z,27.94
2018-08-23T17:26:07.767Z,27.99
2018-08-23T17:28:00.698Z,27.96
2018-08-23T17:29:00.723Z,27.94
2018-08-23T17:30:53.644Z,28.00
2018-08-23T17:31:53.672Z,27.97
2018-08-23T17:33:46.601Z,27.87
2018-08-23T17:34:46.622Z,27.81
2018-08-23T17:36:39.540Z,27.81
2018-08-23T17:37:39.567Z,27.67
2018-08-23T17:39:32.495Z,27.82
2018-08-23T17:40:32.522Z,27.84
2018-08-23T17:42:25.447Z,27.81
2018-08-23T17:43:25.472Z,27.79
2018-08-23T17:45:18.391Z,27.82
2018-08-23T17:46:18.422Z,27.55
2018-08-23T17:48:11.350Z,27.65
2018-08-23T17:49:11.394Z,27.63
2018-08-23T17:51:05.198Z,27.50
2018-08-23T17:52:04.439Z,27.49
2018-08-23T17:53:57.248Z,27.46
2018-08-23T17:54:58.126Z,27.37
2018-08-23T17:56:50.189Z,27.28
2018-08-23T17:57:50.217Z,27.22
2018-08-23T17:59:43.155Z,27.10
2018-08-23T18:00:43.165Z,27.07
2018-08-23T18:02:36.087Z,26.97
2018-08-23T18:03:36.125Z,26.89
2018-08-23T18:05:29.056Z,26.76
2018-08-23T18:06:29.123Z,26.77
2018-08-23T18:08:22.055Z,26.62
2018-08-23T18:09:22.025Z,26.63
2018-08-23T18:11:14.950Z,26.62
2018-08-23T18:12:14.977Z,26.55
2018-08-23T18:14:07.908Z,26.54
2018-08-23T18:15:07.933Z,26.66
2018-08-23T18:17:00.856Z,26.47
2018-08-23T18:18:00.883Z,26.47
2018-08-23T18:19:53.831Z,26.52
2018-08-23T18:20:53.853Z,26.52
2018-08-23T18:22:47.518Z,26.45
2018-08-23T18:23:46.828Z,26.45
2018-08-23T18:25:39.946Z,26.30
2018-08-23T18:26:39.901Z,26.21
2018-08-23T18:28:33.029Z,26.10
2018-08-23T18:29:32.984Z,26.12
2018-08-23T18:31:25.909Z,26.06
2018-08-23T18:32:25.947Z,26.05
2018-08-23T18:34:18.866Z,26.01
2018-08-23T18:35:18.885Z,26.02
2018-08-23T18:37:11.814Z,25.95